sensor_id;sensor_type;location;lat;lon;timestamp;P1;durP1;ratioP1;P2;durP2;ratioP2
15466;SDS011;7834;49.452;11.056;2023-05-02T00:00:09;18.48;;;16.67;;
15466;SDS011;7834;49.452;11.056;2023-05-02T00:02:45;18.88;;;17.08;;
15466;SDS011;7834;49.452;11.056;2023-05-02T00:05:11;18.77;;;16.87;;
15466;SDS011;7834;49.452;11.056;2023-05-02T00:07:37;19.00;;;17.00;;
15466;SDS011;7834;49.452;11.056;2023-05-02T00:10:03;18.27;;;16.38;;
15466;SDS011;7834;49.452;11.056;2023-05-02T00:12:30;18.50;;;16.58;;
15466;SDS011;7834;49.452;11.056;2023-05-02T00:14:56;19.15;;;17.13;;
15466;SDS011;7834;49.452;11.056;2023-05-02T00:17:22;18.92;;;16.92;;
15466;SDS011;7834;49.452;11.056;2023-05-02T00:19:48;18.48;;;16.58;;
15466;SDS011;7834;49.452;11.056;2023-05-02T00:22:14;18.50;;;16.50;;
15466;SDS011;7834;49.452;11.056;2023-05-02T00:24:40;18.83;;;16.92;;
15466;SDS011;7834;49.452;11.056;2023-05-02T00:27:06;18.90;;;17.08;;
15466;SDS011;7834;49.452;11.056;2023-05-02T00:29:32;19.08;;;17.13;;
15466;SDS011;7834;49.452;11.056;2023-05-02T00:31:58;18.67;;;16.77;;
15466;SDS011;7834;49.452;11.056;2023-05-02T00:34:28;19.23;;;17.23;;
15466;SDS011;7834;49.452;11.056;2023-05-02T00:36:55;18.52;;;16.63;;
15466;SDS011;7834;49.452;11.056;2023-05-02T00:39:21;18.95;;;17.05;;
15466;SDS011;7834;49.452;11.056;2023-05-02T00:41:48;18.40;;;16.50;;
15466;SDS011;7834;49.452;11.056;2023-05-02T00:44:14;17.27;;;15.57;;
15466;SDS011;7834;49.452;11.056;2023-05-02T00:46:41;17.00;;;15.40;;
15466;SDS011;7834;49.452;11.056;2023-05-02T00:49:07;18.25;;;16.40;;
15466;SDS011;7834;49.452;11.056;2023-05-02T00:51:34;19.55;;;17.08;;
15466;SDS011;7834;49.452;11.056;2023-05-02T00:54:00;19.55;;;17.58;;
15466;SDS011;7834;49.452;11.056;2023-05-02T00:56:26;19.45;;;17.55;;
15466;SDS011;7834;49.452;11.056;2023-05-02T00:58:52;18.92;;;17.00;;
15466;SDS011;7834;49.452;11.056;2023-05-02T01:01:25;19.30;;;17.30;;
15466;SDS011;7834;49.452;11.056;2023-05-02T01:11:29;18.08;;;16.27;;
15466;SDS011;7834;49.452;11.056;2023-05-02T01:13:59;19.13;;;17.10;;
15466;SDS011;7834;49.452;11.056;2023-05-02T01:16:26;18.55;;;16.63;;
15466;SDS011;7834;49.452;11.056;2023-05-02T01:18:52;18.75;;;16.75;;
15466;SDS011;7834;49.452;11.056;2023-05-02T01:21:19;18.60;;;16.70;;
15466;SDS011;7834;49.452;11.056;2023-05-02T01:23:51;17.63;;;15.85;;
15466;SDS011;7834;49.452;11.056;2023-05-02T01:26:24;17.90;;;16.10;;
15466;SDS011;7834;49.452;11.056;2023-05-02T01:31:24;17.73;;;15.83;;
15466;SDS011;7834;49.452;11.056;2023-05-02T01:33:52;16.70;;;15.05;;
15466;SDS011;7834;49.452;11.056;2023-05-02T01:36:19;17.27;;;15.48;;
15466;SDS011;7834;49.452;11.056;2023-05-02T01:38:45;17.80;;;15.90;;
15466;SDS011;7834;49.452;11.056;2023-05-02T01:41:12;17.83;;;15.95;;
15466;SDS011;7834;49.452;11.056;2023-05-02T01:43:39;17.88;;;15.82;;
15466;SDS011;7834;49.452;11.056;2023-05-02T01:46:05;17.23;;;15.52;;
15466;SDS011;7834;49.452;11.056;2023-05-02T01:48:34;18.80;;;16.20;;
15466;SDS011;7834;49.452;11.056;2023-05-02T01:51:00;17.80;;;15.98;;
15466;SDS011;7834;49.452;11.056;2023-05-02T01:53:27;17.67;;;15.98;;
15466;SDS011;7834;49.452;11.056;2023-05-02T01:55:54;17.75;;;15.93;;
15466;SDS011;7834;49.452;11.056;2023-05-02T01:58:21;17.60;;;15.80;;
15466;SDS011;7834;49.452;11.056;2023-05-02T02:00:48;17.45;;;15.68;;
15466;SDS011;7834;49.452;11.056;2023-05-02T02:03:15;17.20;;;15.50;;
15466;SDS011;7834;49.452;11.056;2023-05-02T02:05:42;17.15;;;15.40;;
15466;SDS011;7834;49.452;11.056;2023-05-02T02:08:08;17.23;;;15.50;;
15466;SDS011;7834;49.452;11.056;2023-05-02T02:10:36;16.95;;;15.20;;
15466;SDS011;7834;49.452;11.056;2023-05-02T02:13:05;16.38;;;14.77;;
15466;SDS011;7834;49.452;11.056;2023-05-02T02:15:35;17.30;;;15.50;;
15466;SDS011;7834;49.452;11.056;2023-05-02T02:18:09;16.97;;;15.23;;
15466;SDS011;7834;49.452;11.056;2023-05-02T02:20:42;16.38;;;14.77;;
15466;SDS011;7834;49.452;11.056;2023-05-02T02:23:08;17.05;;;15.40;;
15466;SDS011;7834;49.452;11.056;2023-05-02T02:25:35;17.15;;;15.43;;
15466;SDS011;7834;49.452;11.056;2023-05-02T02:28:02;16.35;;;14.70;;
15466;SDS011;7834;49.452;11.056;2023-05-02T02:30:28;16.15;;;14.50;;
15466;SDS011;7834;49.452;11.056;2023-05-02T02:32:54;16.77;;;14.93;;
15466;SDS011;7834;49.452;11.056;2023-05-02T02:35:20;16.40;;;14.77;;
15466;SDS011;7834;49.452;11.056;2023-05-02T02:37:49;16.95;;;15.25;;
15466;SDS011;7834;49.452;11.056;2023-05-02T02:47:47;16.38;;;14.77;;
15466;SDS011;7834;49.452;11.056;2023-05-02T02:53:01;16.48;;;14.77;;
15466;SDS011;7834;49.452;11.056;2023-05-02T02:57:59;17.13;;;15.35;;
15466;SDS011;7834;49.452;11.056;2023-05-02T03:00:27;16.30;;;14.70;;
15466;SDS011;7834;49.452;11.056;2023-05-02T03:02:54;16.33;;;14.73;;
15466;SDS011;7834;49.452;11.056;2023-05-02T03:05:21;17.58;;;15.77;;
15466;SDS011;7834;49.452;11.056;2023-05-02T03:07:47;16.97;;;15.27;;
15466;SDS011;7834;49.452;11.056;2023-05-02T03:10:13;17.43;;;15.70;;
15466;SDS011;7834;49.452;11.056;2023-05-02T03:12:39;17.05;;;15.38;;
15466;SDS011;7834;49.452;11.056;2023-05-02T03:17:31;16.92;;;15.13;;
15466;SDS011;7834;49.452;11.056;2023-05-02T03:19:57;16.90;;;15.20;;
15466;SDS011;7834;49.452;11.056;2023-05-02T03:22:23;16.85;;;15.05;;
15466;SDS011;7834;49.452;11.056;2023-05-02T03:24:49;17.23;;;15.43;;
15466;SDS011;7834;49.452;11.056;2023-05-02T03:27:15;16.48;;;14.80;;
15466;SDS011;7834;49.452;11.056;2023-05-02T03:29:41;17.48;;;15.27;;
15466;SDS011;7834;49.452;11.056;2023-05-02T03:32:07;17.07;;;15.27;;
15466;SDS011;7834;49.452;11.056;2023-05-02T03:34:34;17.73;;;15.82;;
15466;SDS011;7834;49.452;11.056;2023-05-02T03:37:00;18.20;;;16.33;;
15466;SDS011;7834;49.452;11.056;2023-05-02T03:39:26;17.15;;;15.48;;
15466;SDS011;7834;49.452;11.056;2023-05-02T03:41:52;17.63;;;15.82;;
15466;SDS011;7834;49.452;11.056;2023-05-02T03:44:18;16.80;;;15.10;;
15466;SDS011;7834;49.452;11.056;2023-05-02T03:46:44;17.20;;;15.50;;
15466;SDS011;7834;49.452;11.056;2023-05-02T03:49:10;17.77;;;15.87;;
15466;SDS011;7834;49.452;11.056;2023-05-02T03:51:37;16.55;;;14.95;;
15466;SDS011;7834;49.452;11.056;2023-05-02T03:54:04;16.65;;;14.98;;
15466;SDS011;7834;49.452;11.056;2023-05-02T03:56:31;17.60;;;15.52;;
15466;SDS011;7834;49.452;11.056;2023-05-02T03:59:01;17.37;;;15.57;;
15466;SDS011;7834;49.452;11.056;2023-05-02T04:01:28;16.40;;;14.70;;
15466;SDS011;7834;49.452;11.056;2023-05-02T04:03:54;17.17;;;15.48;;
15466;SDS011;7834;49.452;11.056;2023-05-02T04:06:20;16.40;;;14.70;;
15466;SDS011;7834;49.452;11.056;2023-05-02T04:08:46;16.63;;;15.00;;
15466;SDS011;7834;49.452;11.056;2023-05-02T04:11:12;17.08;;;15.38;;
15466;SDS011;7834;49.452;11.056;2023-05-02T04:13:38;17.15;;;15.35;;
15466;SDS011;7834;49.452;11.056;2023-05-02T04:16:04;17.75;;;15.88;;
15466;SDS011;7834;49.452;11.056;2023-05-02T04:18:30;17.75;;;15.88;;
15466;SDS011;7834;49.452;11.056;2023-05-02T04:20:56;18.45;;;16.20;;
15466;SDS011;7834;49.452;11.056;2023-05-02T04:23:22;16.90;;;15.10;;
15466;SDS011;7834;49.452;11.056;2023-05-02T04:25:52;17.80;;;15.90;;
15466;SDS011;7834;49.452;11.056;2023-05-02T04:28:19;17.40;;;15.60;;
15466;SDS011;7834;49.452;11.056;2023-05-02T04:30:46;17.00;;;15.30;;
15466;SDS011;7834;49.452;11.056;2023-05-02T04:33:12;17.43;;;15.23;;
15466;SDS011;7834;49.452;11.056;2023-05-02T04:35:38;16.92;;;15.23;;
15466;SDS011;7834;49.452;11.056;2023-05-02T04:38:05;16.65;;;15.02;;
15466;SDS011;7834;49.452;11.056;2023-05-02T04:40:31;17.13;;;15.43;;
15466;SDS011;7834;49.452;11.056;2023-05-02T04:42:57;17.40;;;15.50;;
15466;SDS011;7834;49.452;11.056;2023-05-02T04:45:24;17.77;;;15.52;;
15466;SDS011;7834;49.452;11.056;2023-05-02T04:47:50;16.50;;;14.80;;
15466;SDS011;7834;49.452;11.056;2023-05-02T04:50:18;17.73;;;15.00;;
15466;SDS011;7834;49.452;11.056;2023-05-02T04:52:44;17.10;;;14.93;;
15466;SDS011;7834;49.452;11.056;2023-05-02T04:55:10;16.60;;;14.90;;
15466;SDS011;7834;49.452;11.056;2023-05-02T04:57:36;16.65;;;14.77;;
15466;SDS011;7834;49.452;11.056;2023-05-02T05:00:04;16.65;;;14.88;;
15466;SDS011;7834;49.452;11.056;2023-05-02T05:02:30;16.90;;;14.77;;
15466;SDS011;7834;49.452;11.056;2023-05-02T05:04:56;17.08;;;15.27;;
15466;SDS011;7834;49.452;11.056;2023-05-02T05:07:22;16.70;;;14.93;;
15466;SDS011;7834;49.452;11.056;2023-05-02T05:09:49;17.27;;;15.57;;
15466;SDS011;7834;49.452;11.056;2023-05-02T05:12:15;17.17;;;14.87;;
15466;SDS011;7834;49.452;11.056;2023-05-02T05:14:41;17.00;;;15.13;;
15466;SDS011;7834;49.452;11.056;2023-05-02T05:17:08;18.30;;;15.90;;
15466;SDS011;7834;49.452;11.056;2023-05-02T05:19:34;17.05;;;15.25;;
15466;SDS011;7834;49.452;11.056;2023-05-02T05:22:00;18.45;;;15.73;;
15466;SDS011;7834;49.452;11.056;2023-05-02T05:24:26;17.23;;;15.43;;
15466;SDS011;7834;49.452;11.056;2023-05-02T05:26:52;17.23;;;15.43;;
15466;SDS011;7834;49.452;11.056;2023-05-02T05:29:18;17.55;;;15.63;;
15466;SDS011;7834;49.452;11.056;2023-05-02T05:31:44;17.77;;;15.75;;
15466;SDS011;7834;49.452;11.056;2023-05-02T05:34:10;21.23;;;16.23;;
15466;SDS011;7834;49.452;11.056;2023-05-02T05:36:38;18.48;;;16.55;;
15466;SDS011;7834;49.452;11.056;2023-05-02T05:39:04;19.40;;;17.00;;
15466;SDS011;7834;49.452;11.056;2023-05-02T05:41:30;19.27;;;17.27;;
15466;SDS011;7834;49.452;11.056;2023-05-02T05:43:58;20.20;;;17.40;;
15466;SDS011;7834;49.452;11.056;2023-05-02T05:46:24;21.27;;;18.08;;
15466;SDS011;7834;49.452;11.056;2023-05-02T05:48:52;20.70;;;17.60;;
15466;SDS011;7834;49.452;11.056;2023-05-02T05:51:18;20.92;;;17.90;;
15466;SDS011;7834;49.452;11.056;2023-05-02T05:53:44;17.67;;;15.80;;
15466;SDS011;7834;49.452;11.056;2023-05-02T05:56:11;18.10;;;15.63;;
15466;SDS011;7834;49.452;11.056;2023-05-02T05:58:37;17.50;;;15.60;;
15466;SDS011;7834;49.452;11.056;2023-05-02T06:01:04;16.88;;;14.95;;
15466;SDS011;7834;49.452;11.056;2023-05-02T06:03:30;16.67;;;14.98;;
15466;SDS011;7834;49.452;11.056;2023-05-02T06:05:57;17.55;;;15.20;;
15466;SDS011;7834;49.452;11.056;2023-05-02T06:08:23;16.17;;;14.43;;
15466;SDS011;7834;49.452;11.056;2023-05-02T06:10:49;17.48;;;15.20;;
15466;SDS011;7834;49.452;11.056;2023-05-02T06:13:15;16.00;;;14.30;;
15466;SDS011;7834;49.452;11.056;2023-05-02T06:15:41;17.65;;;15.23;;
15466;SDS011;7834;49.452;11.056;2023-05-02T06:18:07;16.02;;;13.85;;
15466;SDS011;7834;49.452;11.056;2023-05-02T06:20:34;15.88;;;13.77;;
15466;SDS011;7834;49.452;11.056;2023-05-02T06:23:01;15.48;;;13.88;;
15466;SDS011;7834;49.452;11.056;2023-05-02T06:25:26;16.00;;;14.40;;
15466;SDS011;7834;49.452;11.056;2023-05-02T06:27:53;17.23;;;14.05;;
15466;SDS011;7834;49.452;11.056;2023-05-02T06:30:19;18.45;;;13.65;;
15466;SDS011;7834;49.452;11.056;2023-05-02T06:32:45;16.55;;;13.98;;
15466;SDS011;7834;49.452;11.056;2023-05-02T06:35:11;16.73;;;14.23;;
15466;SDS011;7834;49.452;11.056;2023-05-02T06:37:37;15.57;;;13.95;;
15466;SDS011;7834;49.452;11.056;2023-05-02T06:40:03;17.95;;;14.07;;
15466;SDS011;7834;49.452;11.056;2023-05-02T06:42:29;15.05;;;13.45;;
15466;SDS011;7834;49.452;11.056;2023-05-02T06:44:55;15.73;;;13.55;;
15466;SDS011;7834;49.452;11.056;2023-05-02T06:47:21;16.48;;;14.13;;
15466;SDS011;7834;49.452;11.056;2023-05-02T06:49:49;16.95;;;14.50;;
15466;SDS011;7834;49.452;11.056;2023-05-02T06:52:15;18.58;;;14.93;;
15466;SDS011;7834;49.452;11.056;2023-05-02T06:54:41;15.98;;;13.93;;
15466;SDS011;7834;49.452;11.056;2023-05-02T06:57:07;16.92;;;14.57;;
15466;SDS011;7834;49.452;11.056;2023-05-02T06:59:35;16.90;;;14.15;;
15466;SDS011;7834;49.452;11.056;2023-05-02T07:02:01;15.77;;;14.13;;
15466;SDS011;7834;49.452;11.056;2023-05-02T07:04:27;15.13;;;13.60;;
15466;SDS011;7834;49.452;11.056;2023-05-02T07:06:53;15.23;;;13.63;;
15466;SDS011;7834;49.452;11.056;2023-05-02T07:09:19;16.13;;;14.47;;
15466;SDS011;7834;49.452;11.056;2023-05-02T07:11:45;15.68;;;14.07;;
15466;SDS011;7834;49.452;11.056;2023-05-02T07:14:11;14.73;;;13.32;;
15466;SDS011;7834;49.452;11.056;2023-05-02T07:16:37;15.23;;;13.50;;
15466;SDS011;7834;49.452;11.056;2023-05-02T07:19:03;15.45;;;13.88;;
15466;SDS011;7834;49.452;11.056;2023-05-02T07:21:30;15.47;;;13.73;;
15466;SDS011;7834;49.452;11.056;2023-05-02T07:23:56;15.30;;;13.57;;
15466;SDS011;7834;49.452;11.056;2023-05-02T07:26:23;15.50;;;13.90;;
15466;SDS011;7834;49.452;11.056;2023-05-02T07:28:51;15.98;;;14.27;;
15466;SDS011;7834;49.452;11.056;2023-05-02T07:31:17;15.90;;;14.25;;
15466;SDS011;7834;49.452;11.056;2023-05-02T07:33:43;15.33;;;13.60;;
15466;SDS011;7834;49.452;11.056;2023-05-02T07:36:09;14.75;;;13.20;;
15466;SDS011;7834;49.452;11.056;2023-05-02T07:38:35;15.48;;;13.95;;
15466;SDS011;7834;49.452;11.056;2023-05-02T07:41:01;15.93;;;14.27;;
15466;SDS011;7834;49.452;11.056;2023-05-02T07:43:27;14.95;;;13.40;;
15466;SDS011;7834;49.452;11.056;2023-05-02T07:45:53;15.10;;;13.50;;
15466;SDS011;7834;49.452;11.056;2023-05-02T07:48:20;14.15;;;12.65;;
15466;SDS011;7834;49.452;11.056;2023-05-02T07:50:46;14.50;;;12.75;;
15466;SDS011;7834;49.452;11.056;2023-05-02T07:53:12;14.30;;;12.90;;
15466;SDS011;7834;49.452;11.056;2023-05-02T07:55:38;14.40;;;12.90;;
15466;SDS011;7834;49.452;11.056;2023-05-02T07:58:04;14.38;;;12.90;;
15466;SDS011;7834;49.452;11.056;2023-05-02T08:00:30;14.57;;;13.20;;
15466;SDS011;7834;49.452;11.056;2023-05-02T08:02:57;14.13;;;12.73;;
15466;SDS011;7834;49.452;11.056;2023-05-02T08:05:22;14.00;;;12.63;;
15466;SDS011;7834;49.452;11.056;2023-05-02T08:07:48;15.73;;;13.43;;
15466;SDS011;7834;49.452;11.056;2023-05-02T08:10:15;15.25;;;13.77;;
15466;SDS011;7834;49.452;11.056;2023-05-02T08:12:41;14.93;;;13.45;;
15466;SDS011;7834;49.452;11.056;2023-05-02T08:15:07;15.87;;;14.20;;
15466;SDS011;7834;49.452;11.056;2023-05-02T08:17:34;15.70;;;14.10;;
15466;SDS011;7834;49.452;11.056;2023-05-02T08:20:00;15.70;;;14.20;;
15466;SDS011;7834;49.452;11.056;2023-05-02T08:22:26;15.70;;;14.07;;
15466;SDS011;7834;49.452;11.056;2023-05-02T08:24:52;14.90;;;13.40;;
15466;SDS011;7834;49.452;11.056;2023-05-02T08:27:18;13.98;;;12.68;;
15466;SDS011;7834;49.452;11.056;2023-05-02T08:29:44;14.85;;;13.30;;
15466;SDS011;7834;49.452;11.056;2023-05-02T08:32:10;14.90;;;13.40;;
15466;SDS011;7834;49.452;11.056;2023-05-02T08:34:36;13.57;;;11.87;;
15466;SDS011;7834;49.452;11.056;2023-05-02T08:37:06;12.63;;;11.38;;
15466;SDS011;7834;49.452;11.056;2023-05-02T08:39:33;12.82;;;11.60;;
15466;SDS011;7834;49.452;11.056;2023-05-02T08:41:59;13.23;;;11.93;;
15466;SDS011;7834;49.452;11.056;2023-05-02T08:44:25;12.00;;;10.87;;
15466;SDS011;7834;49.452;11.056;2023-05-02T08:46:51;12.32;;;11.13;;
15466;SDS011;7834;49.452;11.056;2023-05-02T08:49:18;12.50;;;11.30;;
15466;SDS011;7834;49.452;11.056;2023-05-02T08:51:44;11.85;;;10.75;;
15466;SDS011;7834;49.452;11.056;2023-05-02T08:54:10;11.48;;;10.40;;
15466;SDS011;7834;49.452;11.056;2023-05-02T08:56:41;11.63;;;10.52;;
15466;SDS011;7834;49.452;11.056;2023-05-02T08:59:07;10.27;;;9.20;;
15466;SDS011;7834;49.452;11.056;2023-05-02T09:01:33;10.63;;;9.53;;
15466;SDS011;7834;49.452;11.056;2023-05-02T09:04:00;10.43;;;9.43;;
15466;SDS011;7834;49.452;11.056;2023-05-02T09:06:26;12.40;;;11.10;;
15466;SDS011;7834;49.452;11.056;2023-05-02T09:08:53;11.32;;;10.32;;
15466;SDS011;7834;49.452;11.056;2023-05-02T09:11:19;9.75;;;8.85;;
15466;SDS011;7834;49.452;11.056;2023-05-02T09:13:49;10.10;;;8.95;;
15466;SDS011;7834;49.452;11.056;2023-05-02T09:18:43;11.00;;;9.63;;
15466;SDS011;7834;49.452;11.056;2023-05-02T09:21:12;10.23;;;9.32;;
15466;SDS011;7834;49.452;11.056;2023-05-02T09:26:18;9.85;;;8.90;;
15466;SDS011;7834;49.452;11.056;2023-05-02T09:31:15;10.60;;;9.60;;
15466;SDS011;7834;49.452;11.056;2023-05-02T09:33:41;9.95;;;9.00;;
15466;SDS011;7834;49.452;11.056;2023-05-02T09:36:08;10.07;;;9.07;;
15466;SDS011;7834;49.452;11.056;2023-05-02T09:38:34;10.00;;;9.00;;
15466;SDS011;7834;49.452;11.056;2023-05-02T09:41:00;9.75;;;8.85;;
15466;SDS011;7834;49.452;11.056;2023-05-02T09:43:27;9.32;;;8.43;;
15466;SDS011;7834;49.452;11.056;2023-05-02T09:45:57;10.02;;;9.10;;
15466;SDS011;7834;49.452;11.056;2023-05-02T09:48:23;10.05;;;9.02;;
15466;SDS011;7834;49.452;11.056;2023-05-02T09:50:49;10.20;;;9.20;;
15466;SDS011;7834;49.452;11.056;2023-05-02T09:53:15;10.52;;;9.52;;
15466;SDS011;7834;49.452;11.056;2023-05-02T09:55:41;10.77;;;9.52;;
15466;SDS011;7834;49.452;11.056;2023-05-02T09:58:15;10.60;;;9.60;;
15466;SDS011;7834;49.452;11.056;2023-05-02T10:00:45;10.77;;;9.77;;
15466;SDS011;7834;49.452;11.056;2023-05-02T10:03:14;10.75;;;9.65;;
15466;SDS011;7834;49.452;11.056;2023-05-02T10:05:40;10.53;;;9.53;;
15466;SDS011;7834;49.452;11.056;2023-05-02T10:08:07;10.83;;;9.77;;
15466;SDS011;7834;49.452;11.056;2023-05-02T10:10:41;11.10;;;10.00;;
15466;SDS011;7834;49.452;11.056;2023-05-02T10:13:09;11.32;;;10.18;;
15466;SDS011;7834;49.452;11.056;2023-05-02T10:15:37;11.65;;;10.55;;
15466;SDS011;7834;49.452;11.056;2023-05-02T10:18:07;12.18;;;10.98;;
15466;SDS011;7834;49.452;11.056;2023-05-02T10:20:39;11.65;;;10.45;;
15466;SDS011;7834;49.452;11.056;2023-05-02T10:23:07;11.75;;;10.55;;
15466;SDS011;7834;49.452;11.056;2023-05-02T10:25:33;11.75;;;10.55;;
15466;SDS011;7834;49.452;11.056;2023-05-02T10:27:59;11.52;;;10.32;;
15466;SDS011;7834;49.452;11.056;2023-05-02T10:30:26;11.47;;;10.37;;
15466;SDS011;7834;49.452;11.056;2023-05-02T10:32:52;11.05;;;10.02;;
15466;SDS011;7834;49.452;11.056;2023-05-02T10:35:18;11.15;;;10.15;;
15466;SDS011;7834;49.452;11.056;2023-05-02T10:37:44;10.85;;;9.88;;
15466;SDS011;7834;49.452;11.056;2023-05-02T10:40:12;10.90;;;9.80;;
15466;SDS011;7834;49.452;11.056;2023-05-02T10:42:39;10.55;;;9.52;;
15466;SDS011;7834;49.452;11.056;2023-05-02T10:45:28;10.65;;;9.65;;
15466;SDS011;7834;49.452;11.056;2023-05-02T10:50:46;8.90;;;8.10;;
15466;SDS011;7834;49.452;11.056;2023-05-02T10:58:45;9.98;;;8.30;;
15466;SDS011;7834;49.452;11.056;2023-05-02T11:04:00;8.85;;;8.05;;
15466;SDS011;7834;49.452;11.056;2023-05-02T11:06:27;9.13;;;8.23;;
15466;SDS011;7834;49.452;11.056;2023-05-02T11:09:36;8.82;;;8.02;;
15466;SDS011;7834;49.452;11.056;2023-05-02T11:11:43;8.32;;;7.53;;
15466;SDS011;7834;49.452;11.056;2023-05-02T11:14:10;8.25;;;7.45;;
15466;SDS011;7834;49.452;11.056;2023-05-02T11:19:21;8.83;;;8.03;;
15466;SDS011;7834;49.452;11.056;2023-05-02T11:21:47;8.38;;;7.50;;
15466;SDS011;7834;49.452;11.056;2023-05-02T11:27:40;7.95;;;7.20;;
15466;SDS011;7834;49.452;11.056;2023-05-02T11:29:50;8.50;;;7.68;;
15466;SDS011;7834;49.452;11.056;2023-05-02T11:32:16;7.03;;;6.33;;
15466;SDS011;7834;49.452;11.056;2023-05-02T11:34:42;8.80;;;6.47;;
15466;SDS011;7834;49.452;11.056;2023-05-02T11:37:09;7.13;;;6.40;;
15466;SDS011;7834;49.452;11.056;2023-05-02T11:39:36;6.07;;;5.50;;
15466;SDS011;7834;49.452;11.056;2023-05-02T11:42:02;6.88;;;6.28;;
15466;SDS011;7834;49.452;11.056;2023-05-02T11:44:28;7.07;;;6.35;;
15466;SDS011;7834;49.452;11.056;2023-05-02T11:46:54;7.22;;;6.50;;
15466;SDS011;7834;49.452;11.056;2023-05-02T11:49:20;7.40;;;6.75;;
15466;SDS011;7834;49.452;11.056;2023-05-02T11:51:46;7.55;;;6.65;;
15466;SDS011;7834;49.452;11.056;2023-05-02T11:54:18;8.02;;;7.28;;
15466;SDS011;7834;49.452;11.056;2023-05-02T11:56:46;7.57;;;6.82;;
15466;SDS011;7834;49.452;11.056;2023-05-02T11:59:12;7.78;;;6.97;;
15466;SDS011;7834;49.452;11.056;2023-05-02T12:01:48;7.83;;;6.73;;
15466;SDS011;7834;49.452;11.056;2023-05-02T12:04:14;7.50;;;6.70;;
15466;SDS011;7834;49.452;11.056;2023-05-02T12:06:53;8.87;;;7.40;;
15466;SDS011;7834;49.452;11.056;2023-05-02T12:09:19;8.98;;;8.05;;
15466;SDS011;7834;49.452;11.056;2023-05-02T12:11:50;9.15;;;8.25;;
15466;SDS011;7834;49.452;11.056;2023-05-02T12:14:16;9.48;;;8.48;;
15466;SDS011;7834;49.452;11.056;2023-05-02T12:16:43;9.65;;;8.65;;
15466;SDS011;7834;49.452;11.056;2023-05-02T12:19:09;9.32;;;8.43;;
15466;SDS011;7834;49.452;11.056;2023-05-02T12:21:36;11.13;;;8.77;;
15466;SDS011;7834;49.452;11.056;2023-05-02T12:24:03;8.52;;;7.72;;
15466;SDS011;7834;49.452;11.056;2023-05-02T12:26:29;7.20;;;6.50;;
15466;SDS011;7834;49.452;11.056;2023-05-02T12:28:56;7.10;;;5.97;;
15466;SDS011;7834;49.452;11.056;2023-05-02T12:31:23;7.50;;;6.70;;
15466;SDS011;7834;49.452;11.056;2023-05-02T12:33:49;8.03;;;6.73;;
15466;SDS011;7834;49.452;11.056;2023-05-02T12:36:19;6.07;;;5.47;;
15466;SDS011;7834;49.452;11.056;2023-05-02T12:38:49;7.10;;;5.00;;
15466;SDS011;7834;49.452;11.056;2023-05-02T12:41:17;3.85;;;3.45;;
15466;SDS011;7834;49.452;11.056;2023-05-02T12:43:47;4.30;;;3.30;;
15466;SDS011;7834;49.452;11.056;2023-05-02T12:46:15;3.30;;;3.00;;
15466;SDS011;7834;49.452;11.056;2023-05-02T12:48:41;5.05;;;3.00;;
15466;SDS011;7834;49.452;11.056;2023-05-02T12:51:21;3.33;;;3.03;;
15466;SDS011;7834;49.452;11.056;2023-05-02T12:53:48;4.38;;;3.20;;
15466;SDS011;7834;49.452;11.056;2023-05-02T12:56:14;5.75;;;5.13;;
15466;SDS011;7834;49.452;11.056;2023-05-02T13:01:07;5.82;;;5.28;;
15466;SDS011;7834;49.452;11.056;2023-05-02T13:03:33;6.47;;;4.78;;
15466;SDS011;7834;49.452;11.056;2023-05-02T13:06:00;5.40;;;4.50;;
15466;SDS011;7834;49.452;11.056;2023-05-02T13:08:26;6.18;;;5.10;;
15466;SDS011;7834;49.452;11.056;2023-05-02T13:10:52;4.90;;;4.50;;
15466;SDS011;7834;49.452;11.056;2023-05-02T13:13:18;4.72;;;4.32;;
15466;SDS011;7834;49.452;11.056;2023-05-02T13:15:44;4.43;;;3.40;;
15466;SDS011;7834;49.452;11.056;2023-05-02T13:18:10;3.55;;;3.20;;
15466;SDS011;7834;49.452;11.056;2023-05-02T13:20:36;4.70;;;2.47;;
15466;SDS011;7834;49.452;11.056;2023-05-02T13:23:02;2.40;;;2.10;;
15466;SDS011;7834;49.452;11.056;2023-05-02T13:25:29;2.80;;;2.10;;
15466;SDS011;7834;49.452;11.056;2023-05-02T13:27:55;2.38;;;2.20;;
15466;SDS011;7834;49.452;11.056;2023-05-02T13:30:21;2.40;;;2.20;;
15466;SDS011;7834;49.452;11.056;2023-05-02T13:32:47;3.60;;;2.25;;
15466;SDS011;7834;49.452;11.056;2023-05-02T13:35:13;3.17;;;2.50;;
15466;SDS011;7834;49.452;11.056;2023-05-02T13:37:39;3.33;;;3.03;;
15466;SDS011;7834;49.452;11.056;2023-05-02T13:40:06;3.30;;;3.10;;
15466;SDS011;7834;49.452;11.056;2023-05-02T13:42:32;3.70;;;3.40;;
15466;SDS011;7834;49.452;11.056;2023-05-02T13:44:59;3.73;;;3.43;;
15466;SDS011;7834;49.452;11.056;2023-05-02T13:47:29;3.97;;;3.55;;
15466;SDS011;7834;49.452;11.056;2023-05-02T13:49:55;3.67;;;3.38;;
15466;SDS011;7834;49.452;11.056;2023-05-02T13:52:21;5.18;;;4.70;;
15466;SDS011;7834;49.452;11.056;2023-05-02T13:54:47;4.47;;;4.07;;
15466;SDS011;7834;49.452;11.056;2023-05-02T13:57:13;4.65;;;4.25;;
15466;SDS011;7834;49.452;11.056;2023-05-02T13:59:39;4.77;;;4.20;;
15466;SDS011;7834;49.452;11.056;2023-05-02T14:02:05;4.45;;;4.05;;
15466;SDS011;7834;49.452;11.056;2023-05-02T14:04:32;4.50;;;4.10;;
15466;SDS011;7834;49.452;11.056;2023-05-02T14:06:58;4.67;;;4.20;;
15466;SDS011;7834;49.452;11.056;2023-05-02T14:09:24;4.75;;;4.25;;
15466;SDS011;7834;49.452;11.056;2023-05-02T14:11:50;4.43;;;4.03;;
15466;SDS011;7834;49.452;11.056;2023-05-02T14:14:16;4.15;;;3.75;;
15466;SDS011;7834;49.452;11.056;2023-05-02T14:16:42;4.30;;;3.90;;
15466;SDS011;7834;49.452;11.056;2023-05-02T14:19:08;4.30;;;3.90;;
15466;SDS011;7834;49.452;11.056;2023-05-02T14:21:35;4.22;;;3.83;;
15466;SDS011;7834;49.452;11.056;2023-05-02T14:24:02;3.20;;;2.90;;
15466;SDS011;7834;49.452;11.056;2023-05-02T14:26:28;2.75;;;2.50;;
15466;SDS011;7834;49.452;11.056;2023-05-02T14:28:55;2.72;;;2.53;;
15466;SDS011;7834;49.452;11.056;2023-05-02T14:31:21;11.05;;;9.85;;
15466;SDS011;7834;49.452;11.056;2023-05-02T14:33:47;2.58;;;2.38;;
15466;SDS011;7834;49.452;11.056;2023-05-02T14:36:13;2.47;;;2.20;;
15466;SDS011;7834;49.452;11.056;2023-05-02T14:38:39;2.20;;;2.00;;
15466;SDS011;7834;49.452;11.056;2023-05-02T14:41:05;2.00;;;1.90;;
15466;SDS011;7834;49.452;11.056;2023-05-02T14:43:31;2.00;;;1.80;;
15466;SDS011;7834;49.452;11.056;2023-05-02T14:45:57;4.10;;;2.00;;
15466;SDS011;7834;49.452;11.056;2023-05-02T14:48:23;2.00;;;1.77;;
15466;SDS011;7834;49.452;11.056;2023-05-02T14:50:49;2.25;;;2.05;;
15466;SDS011;7834;49.452;11.056;2023-05-02T14:53:15;2.08;;;1.88;;
15466;SDS011;7834;49.452;11.056;2023-05-02T14:55:42;3.10;;;2.00;;
15466;SDS011;7834;49.452;11.056;2023-05-02T14:58:08;1.60;;;1.50;;
15466;SDS011;7834;49.452;11.056;2023-05-02T15:00:35;2.10;;;2.00;;
15466;SDS011;7834;49.452;11.056;2023-05-02T15:03:03;2.50;;;2.13;;
15466;SDS011;7834;49.452;11.056;2023-05-02T15:05:29;2.15;;;2.05;;
15466;SDS011;7834;49.452;11.056;2023-05-02T15:07:55;2.30;;;2.00;;
15466;SDS011;7834;49.452;11.056;2023-05-02T15:10:21;2.30;;;2.10;;
15466;SDS011;7834;49.452;11.056;2023-05-02T15:12:47;4.78;;;2.60;;
15466;SDS011;7834;49.452;11.056;2023-05-02T15:15:15;3.50;;;2.47;;
15466;SDS011;7834;49.452;11.056;2023-05-02T15:17:41;2.40;;;2.20;;
15466;SDS011;7834;49.452;11.056;2023-05-02T15:20:08;2.40;;;2.20;;